sensor_id;sensor_type;location;lat;lon;timestamp;P1;durP1;ratioP1;P2;durP2;ratioP2
47161;SDS011;32921;53.256;8.198;2023-03-13T00:01:58;21.75;;;5.63;;
47161;SDS011;32921;53.256;8.198;2023-03-13T00:04:25;22.40;;;6.03;;
47161;SDS011;32921;53.256;8.198;2023-03-13T00:06:50;26.92;;;6.25;;
47161;SDS011;32921;53.256;8.198;2023-03-13T00:09:16;35.13;;;6.75;;
47161;SDS011;32921;53.256;8.198;2023-03-13T00:11:42;34.08;;;7.05;;
47161;SDS011;32921;53.256;8.198;2023-03-13T00:14:09;28.10;;;7.43;;
47161;SDS011;32921;53.256;8.198;2023-03-13T00:16:35;25.52;;;6.78;;
47161;SDS011;32921;53.256;8.198;2023-03-13T00:19:01;37.20;;;8.05;;
47161;SDS011;32921;53.256;8.198;2023-03-13T00:21:29;28.75;;;7.50;;
47161;SDS011;32921;53.256;8.198;2023-03-13T00:23:55;25.73;;;7.68;;
47161;SDS011;32921;53.256;8.198;2023-03-13T00:26:22;34.00;;;8.38;;
47161;SDS011;32921;53.256;8.198;2023-03-13T00:28:50;38.28;;;8.90;;
47161;SDS011;32921;53.256;8.198;2023-03-13T00:31:35;29.35;;;7.93;;
47161;SDS011;32921;53.256;8.198;2023-03-13T00:34:01;38.22;;;8.95;;
47161;SDS011;32921;53.256;8.198;2023-03-13T00:36:31;36.55;;;9.25;;
47161;SDS011;32921;53.256;8.198;2023-03-13T00:38:59;38.90;;;10.38;;
47161;SDS011;32921;53.256;8.198;2023-03-13T00:41:26;47.35;;;9.07;;
47161;SDS011;32921;53.256;8.198;2023-03-13T00:43:53;38.03;;;8.88;;
47161;SDS011;32921;53.256;8.198;2023-03-13T00:46:20;40.85;;;9.50;;
47161;SDS011;32921;53.256;8.198;2023-03-13T00:48:48;42.78;;;9.88;;
47161;SDS011;32921;53.256;8.198;2023-03-13T00:51:14;47.25;;;10.27;;
47161;SDS011;32921;53.256;8.198;2023-03-13T00:53:41;41.30;;;8.63;;
47161;SDS011;32921;53.256;8.198;2023-03-13T00:56:17;44.78;;;10.68;;
47161;SDS011;32921;53.256;8.198;2023-03-13T00:58:49;44.03;;;9.35;;
47161;SDS011;32921;53.256;8.198;2023-03-13T01:01:20;44.15;;;8.70;;
47161;SDS011;32921;53.256;8.198;2023-03-13T01:03:49;39.28;;;7.72;;
47161;SDS011;32921;53.256;8.198;2023-03-13T01:06:20;47.47;;;9.02;;
47161;SDS011;32921;53.256;8.198;2023-03-13T01:08:47;52.65;;;10.20;;
47161;SDS011;32921;53.256;8.198;2023-03-13T01:11:14;46.17;;;8.57;;
47161;SDS011;32921;53.256;8.198;2023-03-13T01:13:41;42.45;;;9.63;;
47161;SDS011;32921;53.256;8.198;2023-03-13T01:16:15;51.78;;;8.43;;
47161;SDS011;32921;53.256;8.198;2023-03-13T01:18:43;44.03;;;8.57;;
47161;SDS011;32921;53.256;8.198;2023-03-13T01:21:11;47.20;;;8.88;;
47161;SDS011;32921;53.256;8.198;2023-03-13T01:23:37;48.55;;;7.72;;
47161;SDS011;32921;53.256;8.198;2023-03-13T01:26:04;44.25;;;9.50;;
47161;SDS011;32921;53.256;8.198;2023-03-13T01:28:30;37.83;;;8.68;;
47161;SDS011;32921;53.256;8.198;2023-03-13T01:30:56;46.35;;;7.97;;
47161;SDS011;32921;53.256;8.198;2023-03-13T01:33:22;46.83;;;8.23;;
47161;SDS011;32921;53.256;8.198;2023-03-13T01:35:48;40.47;;;7.32;;
47161;SDS011;32921;53.256;8.198;2023-03-13T01:38:14;43.42;;;7.25;;
47161;SDS011;32921;53.256;8.198;2023-03-13T01:40:46;42.30;;;7.00;;
47161;SDS011;32921;53.256;8.198;2023-03-13T01:45:53;40.30;;;7.07;;
47161;SDS011;32921;53.256;8.198;2023-03-13T01:48:25;41.67;;;7.72;;
47161;SDS011;32921;53.256;8.198;2023-03-13T01:51:00;40.50;;;7.63;;
47161;SDS011;32921;53.256;8.198;2023-03-13T01:53:30;42.95;;;7.32;;
47161;SDS011;32921;53.256;8.198;2023-03-13T01:56:00;40.08;;;7.18;;
47161;SDS011;32921;53.256;8.198;2023-03-13T01:58:30;38.53;;;6.75;;
47161;SDS011;32921;53.256;8.198;2023-03-13T02:00:56;40.33;;;7.80;;
47161;SDS011;32921;53.256;8.198;2023-03-13T02:03:23;37.53;;;6.25;;
47161;SDS011;32921;53.256;8.198;2023-03-13T02:05:50;39.60;;;7.28;;
47161;SDS011;32921;53.256;8.198;2023-03-13T02:08:18;31.02;;;7.07;;
47161;SDS011;32921;53.256;8.198;2023-03-13T02:10:55;40.22;;;7.22;;
47161;SDS011;32921;53.256;8.198;2023-03-13T02:13:27;42.83;;;6.15;;
47161;SDS011;32921;53.256;8.198;2023-03-13T02:15:53;36.90;;;6.55;;
47161;SDS011;32921;53.256;8.198;2023-03-13T02:18:19;46.90;;;8.18;;
47161;SDS011;32921;53.256;8.198;2023-03-13T02:20:45;29.50;;;5.63;;
47161;SDS011;32921;53.256;8.198;2023-03-13T02:25:54;33.38;;;6.00;;
47161;SDS011;32921;53.256;8.198;2023-03-13T02:28:27;39.53;;;6.93;;
47161;SDS011;32921;53.256;8.198;2023-03-13T02:30:58;44.45;;;6.68;;
47161;SDS011;32921;53.256;8.198;2023-03-13T02:33:31;35.50;;;6.13;;
47161;SDS011;32921;53.256;8.198;2023-03-13T02:36:00;42.67;;;6.80;;
47161;SDS011;32921;53.256;8.198;2023-03-13T02:38:28;37.58;;;6.85;;
47161;SDS011;32921;53.256;8.198;2023-03-13T02:40:58;33.53;;;4.90;;
47161;SDS011;32921;53.256;8.198;2023-03-13T02:43:26;32.42;;;5.63;;
47161;SDS011;32921;53.256;8.198;2023-03-13T02:46:03;37.85;;;6.35;;
47161;SDS011;32921;53.256;8.198;2023-03-13T02:48:44;33.25;;;5.97;;
47161;SDS011;32921;53.256;8.198;2023-03-13T02:51:24;34.97;;;6.22;;
47161;SDS011;32921;53.256;8.198;2023-03-13T02:54:01;44.58;;;6.38;;
47161;SDS011;32921;53.256;8.198;2023-03-13T02:56:30;31.05;;;6.13;;
47161;SDS011;32921;53.256;8.198;2023-03-13T02:58:58;31.60;;;6.38;;
47161;SDS011;32921;53.256;8.198;2023-03-13T03:01:23;37.10;;;6.20;;
47161;SDS011;32921;53.256;8.198;2023-03-13T03:03:49;33.67;;;6.45;;
47161;SDS011;32921;53.256;8.198;2023-03-13T03:06:15;37.88;;;6.32;;
47161;SDS011;32921;53.256;8.198;2023-03-13T03:08:40;37.97;;;6.90;;
47161;SDS011;32921;53.256;8.198;2023-03-13T03:11:08;41.80;;;7.18;;
47161;SDS011;32921;53.256;8.198;2023-03-13T03:13:34;32.47;;;6.20;;
47161;SDS011;32921;53.256;8.198;2023-03-13T03:16:04;33.65;;;7.32;;
47161;SDS011;32921;53.256;8.198;2023-03-13T03:18:34;39.55;;;7.18;;
47161;SDS011;32921;53.256;8.198;2023-03-13T03:21:00;34.67;;;7.13;;
47161;SDS011;32921;53.256;8.198;2023-03-13T03:23:29;29.88;;;6.50;;
47161;SDS011;32921;53.256;8.198;2023-03-13T03:25:54;32.08;;;5.82;;
47161;SDS011;32921;53.256;8.198;2023-03-13T03:28:20;34.95;;;6.65;;
47161;SDS011;32921;53.256;8.198;2023-03-13T03:30:45;43.30;;;7.53;;
47161;SDS011;32921;53.256;8.198;2023-03-13T03:33:11;42.17;;;6.85;;
47161;SDS011;32921;53.256;8.198;2023-03-13T03:35:36;30.27;;;6.72;;
47161;SDS011;32921;53.256;8.198;2023-03-13T03:38:04;35.83;;;6.93;;
47161;SDS011;32921;53.256;8.198;2023-03-13T03:40:30;33.47;;;6.82;;
47161;SDS011;32921;53.256;8.198;2023-03-13T03:42:55;38.92;;;7.47;;
47161;SDS011;32921;53.256;8.198;2023-03-13T03:45:21;39.35;;;7.22;;
47161;SDS011;32921;53.256;8.198;2023-03-13T03:47:47;44.42;;;8.00;;
47161;SDS011;32921;53.256;8.198;2023-03-13T03:50:12;32.72;;;7.78;;
47161;SDS011;32921;53.256;8.198;2023-03-13T03:52:38;37.08;;;7.72;;
47161;SDS011;32921;53.256;8.198;2023-03-13T03:55:03;40.50;;;7.90;;
47161;SDS011;32921;53.256;8.198;2023-03-13T03:57:29;36.58;;;8.98;;
47161;SDS011;32921;53.256;8.198;2023-03-13T03:59:55;31.63;;;9.07;;
47161;SDS011;32921;53.256;8.198;2023-03-13T04:02:21;33.30;;;8.82;;
47161;SDS011;32921;53.256;8.198;2023-03-13T04:04:47;30.45;;;9.40;;
47161;SDS011;32921;53.256;8.198;2023-03-13T04:07:12;31.80;;;9.70;;
47161;SDS011;32921;53.256;8.198;2023-03-13T04:09:38;32.15;;;9.10;;
47161;SDS011;32921;53.256;8.198;2023-03-13T04:12:03;32.55;;;10.32;;
47161;SDS011;32921;53.256;8.198;2023-03-13T04:14:29;36.20;;;11.10;;
47161;SDS011;32921;53.256;8.198;2023-03-13T04:16:54;32.70;;;10.43;;
47161;SDS011;32921;53.256;8.198;2023-03-13T04:19:20;35.08;;;12.00;;
47161;SDS011;32921;53.256;8.198;2023-03-13T04:21:45;25.80;;;11.50;;
47161;SDS011;32921;53.256;8.198;2023-03-13T04:24:11;26.90;;;11.77;;
47161;SDS011;32921;53.256;8.198;2023-03-13T04:26:36;27.60;;;12.30;;
47161;SDS011;32921;53.256;8.198;2023-03-13T04:29:02;33.95;;;12.35;;
47161;SDS011;32921;53.256;8.198;2023-03-13T04:31:30;31.25;;;11.57;;
47161;SDS011;32921;53.256;8.198;2023-03-13T04:33:56;37.40;;;12.75;;
47161;SDS011;32921;53.256;8.198;2023-03-13T04:36:21;30.70;;;12.82;;
47161;SDS011;32921;53.256;8.198;2023-03-13T04:38:47;29.00;;;13.35;;
47161;SDS011;32921;53.256;8.198;2023-03-13T04:41:12;23.13;;;10.52;;
47161;SDS011;32921;53.256;8.198;2023-03-13T04:43:38;27.60;;;13.50;;
47161;SDS011;32921;53.256;8.198;2023-03-13T04:46:04;25.17;;;13.32;;
47161;SDS011;32921;53.256;8.198;2023-03-13T04:48:29;28.05;;;12.75;;
47161;SDS011;32921;53.256;8.198;2023-03-13T04:50:55;26.83;;;13.00;;
47161;SDS011;32921;53.256;8.198;2023-03-13T04:53:20;20.90;;;10.85;;
47161;SDS011;32921;53.256;8.198;2023-03-13T04:55:46;24.77;;;12.65;;
47161;SDS011;32921;53.256;8.198;2023-03-13T04:58:13;24.65;;;10.57;;
47161;SDS011;32921;53.256;8.198;2023-03-13T05:00:39;26.58;;;12.52;;
47161;SDS011;32921;53.256;8.198;2023-03-13T05:03:05;19.42;;;12.52;;
47161;SDS011;32921;53.256;8.198;2023-03-13T05:05:32;20.80;;;11.20;;
47161;SDS011;32921;53.256;8.198;2023-03-13T05:07:58;20.98;;;11.00;;
47161;SDS011;32921;53.256;8.198;2023-03-13T05:10:24;20.55;;;9.65;;
47161;SDS011;32921;53.256;8.198;2023-03-13T05:12:49;20.55;;;10.38;;
47161;SDS011;32921;53.256;8.198;2023-03-13T05:15:15;16.90;;;10.48;;
47161;SDS011;32921;53.256;8.198;2023-03-13T05:17:40;22.63;;;10.73;;
47161;SDS011;32921;53.256;8.198;2023-03-13T05:20:07;17.90;;;10.15;;
47161;SDS011;32921;53.256;8.198;2023-03-13T05:22:35;13.25;;;7.78;;
47161;SDS011;32921;53.256;8.198;2023-03-13T05:25:01;16.83;;;10.18;;
47161;SDS011;32921;53.256;8.198;2023-03-13T05:27:27;17.48;;;10.23;;
47161;SDS011;32921;53.256;8.198;2023-03-13T05:29:52;16.70;;;10.25;;
47161;SDS011;32921;53.256;8.198;2023-03-13T05:32:18;14.80;;;9.77;;
47161;SDS011;32921;53.256;8.198;2023-03-13T05:34:43;17.13;;;9.38;;
47161;SDS011;32921;53.256;8.198;2023-03-13T05:37:09;15.05;;;10.13;;
47161;SDS011;32921;53.256;8.198;2023-03-13T05:39:34;18.60;;;10.55;;
47161;SDS011;32921;53.256;8.198;2023-03-13T05:42:00;15.90;;;10.43;;
47161;SDS011;32921;53.256;8.198;2023-03-13T05:44:25;14.60;;;9.43;;
47161;SDS011;32921;53.256;8.198;2023-03-13T05:46:51;14.63;;;9.88;;
47161;SDS011;32921;53.256;8.198;2023-03-13T05:49:16;17.42;;;10.20;;
47161;SDS011;32921;53.256;8.198;2023-03-13T05:51:42;14.82;;;9.98;;
47161;SDS011;32921;53.256;8.198;2023-03-13T05:54:07;17.38;;;10.25;;
47161;SDS011;32921;53.256;8.198;2023-03-13T05:56:33;15.38;;;9.48;;
47161;SDS011;32921;53.256;8.198;2023-03-13T05:58:58;15.23;;;9.70;;
47161;SDS011;32921;53.256;8.198;2023-03-13T06:01:24;12.75;;;8.10;;
47161;SDS011;32921;53.256;8.198;2023-03-13T06:03:50;16.65;;;9.23;;
47161;SDS011;32921;53.256;8.198;2023-03-13T06:06:16;13.20;;;7.82;;
47161;SDS011;32921;53.256;8.198;2023-03-13T06:08:41;14.57;;;9.07;;
47161;SDS011;32921;53.256;8.198;2023-03-13T06:11:07;17.02;;;8.90;;
47161;SDS011;32921;53.256;8.198;2023-03-13T06:13:32;16.05;;;9.32;;
47161;SDS011;32921;53.256;8.198;2023-03-13T06:15:58;12.30;;;8.32;;
47161;SDS011;32921;53.256;8.198;2023-03-13T06:18:24;16.25;;;9.23;;
47161;SDS011;32921;53.256;8.198;2023-03-13T06:20:55;13.27;;;8.52;;
47161;SDS011;32921;53.256;8.198;2023-03-13T06:25:48;12.55;;;8.02;;
47161;SDS011;32921;53.256;8.198;2023-03-13T06:28:14;12.90;;;8.18;;
47161;SDS011;32921;53.256;8.198;2023-03-13T06:30:40;10.82;;;7.57;;
47161;SDS011;32921;53.256;8.198;2023-03-13T06:33:06;11.40;;;6.20;;
47161;SDS011;32921;53.256;8.198;2023-03-13T06:35:31;10.57;;;6.32;;
47161;SDS011;32921;53.256;8.198;2023-03-13T06:37:57;11.02;;;6.40;;
47161;SDS011;32921;53.256;8.198;2023-03-13T06:40:23;8.70;;;4.88;;
47161;SDS011;32921;53.256;8.198;2023-03-13T06:42:48;8.85;;;5.30;;
47161;SDS011;32921;53.256;8.198;2023-03-13T06:45:14;7.72;;;4.60;;
47161;SDS011;32921;53.256;8.198;2023-03-13T06:47:39;8.40;;;5.10;;
47161;SDS011;32921;53.256;8.198;2023-03-13T06:50:05;7.18;;;4.65;;
47161;SDS011;32921;53.256;8.198;2023-03-13T06:52:31;9.90;;;4.75;;
47161;SDS011;32921;53.256;8.198;2023-03-13T06:54:56;5.28;;;3.20;;
47161;SDS011;32921;53.256;8.198;2023-03-13T06:57:22;7.32;;;4.20;;
47161;SDS011;32921;53.256;8.198;2023-03-13T06:59:47;6.05;;;3.55;;
47161;SDS011;32921;53.256;8.198;2023-03-13T07:02:13;7.00;;;3.30;;
47161;SDS011;32921;53.256;8.198;2023-03-13T07:04:39;7.93;;;4.47;;
47161;SDS011;32921;53.256;8.198;2023-03-13T07:07:05;4.82;;;3.28;;
47161;SDS011;32921;53.256;8.198;2023-03-13T07:09:30;7.25;;;4.05;;
47161;SDS011;32921;53.256;8.198;2023-03-13T07:11:56;8.10;;;3.70;;
47161;SDS011;32921;53.256;8.198;2023-03-13T07:14:22;9.32;;;4.40;;
47161;SDS011;32921;53.256;8.198;2023-03-13T07:16:48;7.68;;;3.50;;
47161;SDS011;32921;53.256;8.198;2023-03-13T07:19:14;9.35;;;4.00;;
47161;SDS011;32921;53.256;8.198;2023-03-13T07:21:40;9.27;;;4.55;;
47161;SDS011;32921;53.256;8.198;2023-03-13T07:24:06;7.40;;;3.95;;
47161;SDS011;32921;53.256;8.198;2023-03-13T07:26:32;7.93;;;4.00;;
47161;SDS011;32921;53.256;8.198;2023-03-13T07:28:57;7.13;;;4.60;;
47161;SDS011;32921;53.256;8.198;2023-03-13T07:31:23;8.60;;;4.68;;
47161;SDS011;32921;53.256;8.198;2023-03-13T07:33:49;9.40;;;5.22;;
47161;SDS011;32921;53.256;8.198;2023-03-13T07:36:16;8.77;;;5.57;;
47161;SDS011;32921;53.256;8.198;2023-03-13T07:38:42;4.97;;;2.88;;
47161;SDS011;32921;53.256;8.198;2023-03-13T07:41:12;10.23;;;4.97;;
47161;SDS011;32921;53.256;8.198;2023-03-13T07:43:37;10.77;;;5.60;;
47161;SDS011;32921;53.256;8.198;2023-03-13T07:46:03;9.07;;;5.68;;
47161;SDS011;32921;53.256;8.198;2023-03-13T07:48:34;12.38;;;5.35;;
47161;SDS011;32921;53.256;8.198;2023-03-13T07:51:02;10.98;;;4.95;;
47161;SDS011;32921;53.256;8.198;2023-03-13T07:53:32;11.65;;;7.05;;
47161;SDS011;32921;53.256;8.198;2023-03-13T07:56:02;15.20;;;7.47;;
47161;SDS011;32921;53.256;8.198;2023-03-13T07:58:34;12.95;;;6.88;;
47161;SDS011;32921;53.256;8.198;2023-03-13T08:01:08;14.75;;;7.05;;
47161;SDS011;32921;53.256;8.198;2023-03-13T08:03:35;14.90;;;7.45;;
47161;SDS011;32921;53.256;8.198;2023-03-13T08:06:03;15.07;;;7.10;;
47161;SDS011;32921;53.256;8.198;2023-03-13T08:08:37;9.43;;;5.20;;
47161;SDS011;32921;53.256;8.198;2023-03-13T08:11:08;14.85;;;6.35;;
47161;SDS011;32921;53.256;8.198;2023-03-13T08:13:35;11.10;;;6.47;;
47161;SDS011;32921;53.256;8.198;2023-03-13T08:16:02;19.38;;;7.50;;
47161;SDS011;32921;53.256;8.198;2023-03-13T08:18:31;15.20;;;7.45;;
47161;SDS011;32921;53.256;8.198;2023-03-13T08:21:08;15.20;;;6.57;;
47161;SDS011;32921;53.256;8.198;2023-03-13T08:23:36;15.68;;;6.30;;
47161;SDS011;32921;53.256;8.198;2023-03-13T08:26:15;13.15;;;7.13;;
47161;SDS011;32921;53.256;8.198;2023-03-13T08:28:42;14.88;;;6.65;;
47161;SDS011;32921;53.256;8.198;2023-03-13T08:31:09;16.15;;;6.22;;
47161;SDS011;32921;53.256;8.198;2023-03-13T08:33:35;17.05;;;8.38;;
47161;SDS011;32921;53.256;8.198;2023-03-13T08:36:09;13.65;;;7.60;;
47161;SDS011;32921;53.256;8.198;2023-03-13T08:38:41;14.38;;;6.72;;
47161;SDS011;32921;53.256;8.198;2023-03-13T08:41:08;17.30;;;7.82;;
47161;SDS011;32921;53.256;8.198;2023-03-13T08:43:34;15.65;;;7.47;;
47161;SDS011;32921;53.256;8.198;2023-03-13T08:46:00;11.40;;;5.57;;
47161;SDS011;32921;53.256;8.198;2023-03-13T08:48:25;21.25;;;8.25;;
47161;SDS011;32921;53.256;8.198;2023-03-13T08:53:44;10.02;;;5.63;;
47161;SDS011;32921;53.256;8.198;2023-03-13T08:56:11;11.68;;;5.78;;
47161;SDS011;32921;53.256;8.198;2023-03-13T08:58:38;15.30;;;7.25;;
47161;SDS011;32921;53.256;8.198;2023-03-13T09:01:08;12.05;;;6.10;;
47161;SDS011;32921;53.256;8.198;2023-03-13T09:03:38;13.48;;;7.05;;
47161;SDS011;32921;53.256;8.198;2023-03-13T09:06:05;14.93;;;6.78;;
47161;SDS011;32921;53.256;8.198;2023-03-13T09:08:32;15.90;;;6.50;;
47161;SDS011;32921;53.256;8.198;2023-03-13T09:10:59;11.20;;;6.55;;
47161;SDS011;32921;53.256;8.198;2023-03-13T09:13:27;18.23;;;7.50;;
47161;SDS011;32921;53.256;8.198;2023-03-13T09:15:55;13.52;;;7.53;;
47161;SDS011;32921;53.256;8.198;2023-03-13T09:18:21;13.75;;;6.60;;
47161;SDS011;32921;53.256;8.198;2023-03-13T09:20:47;14.13;;;6.40;;
47161;SDS011;32921;53.256;8.198;2023-03-13T09:23:12;14.75;;;6.35;;
47161;SDS011;32921;53.256;8.198;2023-03-13T09:25:38;12.88;;;6.10;;
47161;SDS011;32921;53.256;8.198;2023-03-13T09:28:03;9.45;;;5.13;;
47161;SDS011;32921;53.256;8.198;2023-03-13T09:30:29;12.32;;;3.72;;
47161;SDS011;32921;53.256;8.198;2023-03-13T09:32:55;8.80;;;4.25;;
47161;SDS011;32921;53.256;8.198;2023-03-13T09:35:20;8.80;;;4.32;;
47161;SDS011;32921;53.256;8.198;2023-03-13T09:37:46;8.70;;;4.43;;
47161;SDS011;32921;53.256;8.198;2023-03-13T09:40:13;9.98;;;4.53;;
47161;SDS011;32921;53.256;8.198;2023-03-13T09:42:51;9.50;;;4.50;;
47161;SDS011;32921;53.256;8.198;2023-03-13T09:45:29;8.07;;;4.10;;
47161;SDS011;32921;53.256;8.198;2023-03-13T09:48:03;8.23;;;3.72;;
47161;SDS011;32921;53.256;8.198;2023-03-13T09:50:33;6.10;;;3.05;;
47161;SDS011;32921;53.256;8.198;2023-03-13T09:53:05;7.82;;;3.90;;
47161;SDS011;32921;53.256;8.198;2023-03-13T09:55:40;8.50;;;3.60;;
47161;SDS011;32921;53.256;8.198;2023-03-13T09:58:16;7.35;;;3.58;;
47161;SDS011;32921;53.256;8.198;2023-03-13T10:00:55;8.68;;;3.35;;
47161;SDS011;32921;53.256;8.198;2023-03-13T10:03:26;5.88;;;3.35;;
47161;SDS011;32921;53.256;8.198;2023-03-13T10:05:54;7.63;;;3.05;;
47161;SDS011;32921;53.256;8.198;2023-03-13T10:08:24;8.05;;;3.17;;
47161;SDS011;32921;53.256;8.198;2023-03-13T10:18:54;8.63;;;2.50;;
47161;SDS011;32921;53.256;8.198;2023-03-13T10:21:22;8.13;;;2.53;;
47161;SDS011;32921;53.256;8.198;2023-03-13T10:23:58;6.63;;;2.47;;
47161;SDS011;32921;53.256;8.198;2023-03-13T10:26:26;4.28;;;2.17;;
47161;SDS011;32921;53.256;8.198;2023-03-13T10:28:54;6.25;;;2.25;;
47161;SDS011;32921;53.256;8.198;2023-03-13T10:34:06;6.20;;;1.75;;
47161;SDS011;32921;53.256;8.198;2023-03-13T10:36:44;5.35;;;1.88;;
47161;SDS011;32921;53.256;8.198;2023-03-13T10:39:16;5.80;;;1.92;;
47161;SDS011;32921;53.256;8.198;2023-03-13T10:41:43;9.50;;;2.00;;
47161;SDS011;32921;53.256;8.198;2023-03-13T10:44:19;6.68;;;1.92;;
47161;SDS011;32921;53.256;8.198;2023-03-13T10:46:47;4.57;;;2.10;;
47161;SDS011;32921;53.256;8.198;2023-03-13T10:49:15;5.13;;;2.03;;
47161;SDS011;32921;53.256;8.198;2023-03-13T10:51:49;6.40;;;2.10;;
47161;SDS011;32921;53.256;8.198;2023-03-13T10:54:38;6.75;;;2.00;;
47161;SDS011;32921;53.256;8.198;2023-03-13T10:59:55;5.05;;;1.60;;
47161;SDS011;32921;53.256;8.198;2023-03-13T11:02:26;7.78;;;1.70;;
47161;SDS011;32921;53.256;8.198;2023-03-13T11:04:56;3.83;;;1.60;;
47161;SDS011;32921;53.256;8.198;2023-03-13T11:12:46;5.30;;;1.38;;
47161;SDS011;32921;53.256;8.198;2023-03-13T11:15:38;5.80;;;1.50;;
47161;SDS011;32921;53.256;8.198;2023-03-13T11:18:15;3.38;;;1.00;;
47161;SDS011;32921;53.256;8.198;2023-03-13T11:20:55;5.75;;;1.60;;
47161;SDS011;32921;53.256;8.198;2023-03-13T11:23:26;6.15;;;1.48;;
47161;SDS011;32921;53.256;8.198;2023-03-13T11:28:54;3.53;;;1.20;;
47161;SDS011;32921;53.256;8.198;2023-03-13T11:31:28;7.70;;;1.73;;
47161;SDS011;32921;53.256;8.198;2023-03-13T11:37:08;3.22;;;1.23;;
47161;SDS011;32921;53.256;8.198;2023-03-13T11:39:39;3.30;;;1.27;;
47161;SDS011;32921;53.256;8.198;2023-03-13T11:58:53;4.93;;;1.30;;
47161;SDS011;32921;53.256;8.198;2023-03-13T12:01:25;5.85;;;2.05;;
47161;SDS011;32921;53.256;8.198;2023-03-13T12:06:30;8.50;;;1.70;;
47161;SDS011;32921;53.256;8.198;2023-03-13T12:09:41;7.43;;;1.40;;
47161;SDS011;32921;53.256;8.198;2023-03-13T12:14:36;4.30;;;1.40;;
47161;SDS011;32921;53.256;8.198;2023-03-13T12:17:51;7.03;;;1.42;;
47161;SDS011;32921;53.256;8.198;2023-03-13T12:25:51;5.35;;;1.45;;
47161;SDS011;32921;53.256;8.198;2023-03-13T12:36:38;4.40;;;1.15;;
47161;SDS011;32921;53.256;8.198;2023-03-13T12:39:30;4.97;;;1.10;;
47161;SDS011;32921;53.256;8.198;2023-03-13T12:44:51;4.38;;;1.30;;
47161;SDS011;32921;53.256;8.198;2023-03-13T12:47:21;3.45;;;0.80;;
47161;SDS011;32921;53.256;8.198;2023-03-13T12:56:33;3.70;;;1.02;;
47161;SDS011;32921;53.256;8.198;2023-03-13T12:59:14;4.85;;;1.20;;
47161;SDS011;32921;53.256;8.198;2023-03-13T13:01:44;4.40;;;1.23;;
47161;SDS011;32921;53.256;8.198;2023-03-13T13:04:13;3.20;;;1.10;;
47161;SDS011;32921;53.256;8.198;2023-03-13T13:06:58;8.45;;;1.30;;
47161;SDS011;32921;53.256;8.198;2023-03-13T13:20:37;5.65;;;1.35;;
47161;SDS011;32921;53.256;8.198;2023-03-13T13:23:25;4.03;;;1.40;;
47161;SDS011;32921;53.256;8.198;2023-03-13T13:26:36;4.70;;;1.40;;
47161;SDS011;32921;53.256;8.198;2023-03-13T13:28:50;3.83;;;1.02;;
47161;SDS011;32921;53.256;8.198;2023-03-13T13:36:53;4.38;;;1.27;;
47161;SDS011;32921;53.256;8.198;2023-03-13T13:39:25;3.47;;;1.25;;
47161;SDS011;32921;53.256;8.198;2023-03-13T13:44:59;4.30;;;0.90;;
47161;SDS011;32921;53.256;8.198;2023-03-13T13:47:29;3.67;;;0.90;;
47161;SDS011;32921;53.256;8.198;2023-03-13T13:49:57;2.70;;;1.02;;
47161;SDS011;32921;53.256;8.198;2023-03-13T13:52:39;3.47;;;1.00;;
47161;SDS011;32921;53.256;8.198;2023-03-13T13:58:10;7.35;;;1.30;;
47161;SDS011;32921;53.256;8.198;2023-03-13T14:00:41;2.80;;;0.93;;
47161;SDS011;32921;53.256;8.198;2023-03-13T14:03:24;5.03;;;1.20;;
47161;SDS011;32921;53.256;8.198;2023-03-13T14:05:55;8.55;;;1.20;;
47161;SDS011;32921;53.256;8.198;2023-03-13T14:08:30;5.00;;;1.30;;
47161;SDS011;32921;53.256;8.198;2023-03-13T14:13:44;2.20;;;1.00;;
47161;SDS011;32921;53.256;8.198;2023-03-13T14:16:50;4.70;;;1.50;;
47161;SDS011;32921;53.256;8.198;2023-03-13T14:19:29;5.65;;;1.30;;
47161;SDS011;32921;53.256;8.198;2023-03-13T14:22:02;6.47;;;1.20;;
47161;SDS011;32921;53.256;8.198;2023-03-13T14:24:30;5.30;;;1.30;;
47161;SDS011;32921;53.256;8.198;2023-03-13T14:26:55;4.45;;;1.10;;
47161;SDS011;32921;53.256;8.198;2023-03-13T14:29:21;4.82;;;1.40;;
47161;SDS011;32921;53.256;8.198;2023-03-13T14:31:56;4.40;;;1.10;;
47161;SDS011;32921;53.256;8.198;2023-03-13T14:34:24;6.40;;;1.40;;
47161;SDS011;32921;53.256;8.198;2023-03-13T14:36:56;4.88;;;1.42;;
47161;SDS011;32921;53.256;8.198;2023-03-13T14:42:12;7.85;;;1.85;;
47161;SDS011;32921;53.256;8.198;2023-03-13T14:44:40;4.50;;;1.20;;
47161;SDS011;32921;53.256;8.198;2023-03-13T14:49:48;4.32;;;1.27;;
47161;SDS011;32921;53.256;8.198;2023-03-13T14:52:22;6.25;;;1.40;;
47161;SDS011;32921;53.256;8.198;2023-03-13T14:54:53;4.35;;;1.42;;
47161;SDS011;32921;53.256;8.198;2023-03-13T14:59:47;6.43;;;1.33;;
47161;SDS011;32921;53.256;8.198;2023-03-13T15:02:17;5.50;;;1.60;;
47161;SDS011;32921;53.256;8.198;2023-03-13T15:04:47;5.47;;;1.40;;
47161;SDS011;32921;53.256;8.198;2023-03-13T15:07:16;5.78;;;1.30;;
47161;SDS011;32921;53.256;8.198;2023-03-13T15:09:43;5.07;;;1.40;;
47161;SDS011;32921;53.256;8.198;2023-03-13T15:12:21;4.10;;;1.27;;
47161;SDS011;32921;53.256;8.198;2023-03-13T15:14:48;6.75;;;1.38;;
47161;SDS011;32921;53.256;8.198;2023-03-13T15:17:17;5.70;;;1.40;;
47161;SDS011;32921;53.256;8.198;2023-03-13T15:19:51;6.20;;;1.25;;
47161;SDS011;32921;53.256;8.198;2023-03-13T15:22:21;7.22;;;1.33;;
47161;SDS011;32921;53.256;8.198;2023-03-13T15:25:00;6.20;;;1.42;;
47161;SDS011;32921;53.256;8.198;2023-03-13T15:27:26;10.18;;;1.60;;
47161;SDS011;32921;53.256;8.198;2023-03-13T15:29:52;7.55;;;1.45;;
47161;SDS011;32921;53.256;8.198;2023-03-13T15:32:21;5.55;;;1.20;;
47161;SDS011;32921;53.256;8.198;2023-03-13T15:34:52;7.68;;;1.20;;
47161;SDS011;32921;53.256;8.198;2023-03-13T15:37:22;5.32;;;1.20;;
47161;SDS011;32921;53.256;8.198;2023-03-13T15:39:53;8.35;;;1.40;;
47161;SDS011;32921;53.256;8.198;2023-03-13T15:42:20;9.02;;;1.50;;
47161;SDS011;32921;53.256;8.198;2023-03-13T15:44:46;3.92;;;1.17;;
47161;SDS011;32921;53.256;8.198;2023-03-13T15:47:16;3.63;;;1.08;;
47161;SDS011;32921;53.256;8.198;2023-03-13T15:49:44;5.90;;;1.38;;
47161;SDS011;32921;53.256;8.198;2023-03-13T15:52:17;8.20;;;1.30;;
47161;SDS011;32921;53.256;8.198;2023-03-13T15:54:46;9.07;;;1.73;;
47161;SDS011;32921;53.256;8.198;2023-03-13T15:57:16;4.75;;;1.13;;
47161;SDS011;32921;53.256;8.198;2023-03-13T15:59:46;5.70;;;1.38;;
47161;SDS011;32921;53.256;8.198;2023-03-13T16:02:14;6.68;;;1.40;;
47161;SDS011;32921;53.256;8.198;2023-03-13T16:04:41;6.10;;;1.15;;
47161;SDS011;32921;53.256;8.198;2023-03-13T16:07:11;5.45;;;1.42;;
47161;SDS011;32921;53.256;8.198;2023-03-13T16:09:38;8.70;;;1.70;;
47161;SDS011;32921;53.256;8.198;2023-03-13T16:12:05;7.28;;;1.60;;
47161;SDS011;32921;53.256;8.198;2023-03-13T16:14:31;7.28;;;2.00;;
47161;SDS011;32921;53.256;8.198;2023-03-13T16:16:57;6.47;;;1.98;;
47161;SDS011;32921;53.256;8.198;2023-03-13T16:19:22;6.53;;;1.83;;
47161;SDS011;32921;53.256;8.198;2023-03-13T16:21:48;8.05;;;1.77;;
47161;SDS011;32921;53.256;8.198;2023-03-13T16:24:14;7.53;;;1.70;;
47161;SDS011;32921;53.256;8.198;2023-03-13T16:26:42;11.02;;;2.15;;
47161;SDS011;32921;53.256;8.198;2023-03-13T16:29:11;5.25;;;1.48;;
47161;SDS011;32921;53.256;8.198;2023-03-13T16:31:39;10.65;;;2.13;;
47161;SDS011;32921;53.256;8.198;2023-03-13T16:34:04;6.15;;;1.63;;
47161;SDS011;32921;53.256;8.198;2023-03-13T16:36:32;8.23;;;1.92;;
47161;SDS011;32921;53.256;8.198;2023-03-13T16:38:59;11.00;;;1.92;;
47161;SDS011;32921;53.256;8.198;2023-03-13T16:41:26;8.85;;;1.92;;
47161;SDS011;32921;53.256;8.198;2023-03-13T16:43:53;11.90;;;2.30;;